createdAt,value
2019-03-28T00:00:11.889Z,102989.51
2019-03-28T00:01:20.247Z,102989.48
2019-03-28T00:02:27.726Z,102990.17
2019-03-28T00:03:35.196Z,102988.83
2019-03-28T00:04:42.674Z,102985.87
2019-03-28T00:05:50.345Z,102989.31
2019-03-28T00:06:57.836Z,102985.00
2019-03-28T00:08:05.735Z,102988.83
2019-03-28T00:09:13.236Z,102986.92
2019-03-28T00:10:20.704Z,102990.82
2019-03-28T00:11:28.279Z,102996.05
2019-03-28T00:12:35.791Z,102993.47
2019-03-28T00:13:43.263Z,102990.45
2019-03-28T00:14:50.800Z,102989.55
2019-03-28T00:15:58.749Z,102989.94
2019-03-28T00:17:06.307Z,102992.19
2019-03-28T00:18:14.157Z,102990.59
2019-03-28T00:19:22.118Z,102989.31
2019-03-28T00:20:29.806Z,102985.02
2019-03-28T00:21:37.907Z,102988.01
2019-03-28T00:22:54.442Z,102987.01
2019-03-28T00:24:09.923Z,102980.56
2019-03-28T00:25:17.430Z,102989.14
2019-03-28T00:26:30.403Z,102990.48
2019-03-28T00:27:35.066Z,102991.00
2019-03-28T00:28:42.957Z,102991.39
2019-03-28T00:29:50.544Z,102990.97
2019-03-28T00:30:58.380Z,102991.90
2019-03-28T00:32:05.895Z,103002.08
2019-03-28T00:33:14.070Z,102996.11
2019-03-28T00:34:21.656Z,102996.11
2019-03-28T00:35:29.634Z,102999.89
2019-03-28T00:36:38.831Z,103002.39
2019-03-28T00:37:46.524Z,102999.07
2019-03-28T00:38:54.071Z,103001.23
2019-03-28T00:40:02.037Z,102995.94
2019-03-28T00:41:09.787Z,102991.16
2019-03-28T00:42:17.256Z,102994.14
2019-03-28T00:43:25.271Z,102994.52
2019-03-28T00:44:33.356Z,102997.59
2019-03-28T00:45:40.831Z,102991.64
2019-03-28T00:46:48.358Z,102998.04
2019-03-28T00:47:56.223Z,102995.08
2019-03-28T00:49:03.783Z,102992.98
2019-03-28T00:50:12.657Z,102995.17
2019-03-28T00:51:20.246Z,102995.54
2019-03-28T00:52:27.719Z,102991.58
2019-03-28T00:53:35.723Z,102989.39
2019-03-28T00:54:43.177Z,102991.95
2019-03-28T00:55:51.164Z,102991.55
2019-03-28T00:56:59.208Z,102995.00
2019-03-28T00:58:07.125Z,102993.72
2019-03-28T00:59:15.006Z,102991.95
2019-03-28T01:00:23.251Z,102991.16
2019-03-28T01:01:31.317Z,102989.94
2019-03-28T01:02:38.781Z,102986.47
2019-03-28T01:03:46.614Z,102986.92
2019-03-28T01:04:54.481Z,102985.64
2019-03-28T01:06:01.973Z,102982.72
2019-03-28T01:07:09.590Z,102983.91
2019-03-28T01:08:17.413Z,102981.41
2019-03-28T01:09:24.921Z,102984.09
2019-03-28T01:10:32.454Z,102980.64
2019-03-28T01:11:39.920Z,102982.75
2019-03-28T01:12:47.831Z,102983.63
2019-03-28T01:13:56.904Z,102984.99
2019-03-28T01:15:04.899Z,102982.46
2019-03-28T01:16:12.348Z,102982.06
2019-03-28T01:17:19.816Z,102979.94
2019-03-28T01:18:27.354Z,102977.32
2019-03-28T01:19:35.234Z,102975.21
2019-03-28T01:20:43.373Z,102978.68
2019-03-28T01:21:51.223Z,102980.44
2019-03-28T01:22:58.762Z,102978.73
2019-03-28T01:24:06.636Z,102981.32
2019-03-28T01:25:14.241Z,102977.11
2019-03-28T01:26:22.440Z,102982.69
2019-03-28T01:27:29.904Z,102980.02
2019-03-28T01:28:37.813Z,102983.48
2019-03-28T01:29:45.623Z,102987.75
2019-03-28T01:30:53.194Z,102986.04
2019-03-28T01:32:02.173Z,102980.87
2019-03-28T01:33:09.972Z,102979.47
2019-03-28T01:34:17.482Z,102977.43
2019-03-28T01:35:26.073Z,102977.77
2019-03-28T01:36:35.883Z,102976.04
2019-03-28T01:37:43.530Z,102977.27
2019-03-28T01:38:51.455Z,102970.80
2019-03-28T01:40:00.819Z,102974.22
2019-03-28T01:41:08.325Z,102971.72
2019-03-28T01:42:16.246Z,102971.23
2019-03-28T01:43:23.946Z,102967.42
2019-03-28T01:44:31.779Z,102971.32
2019-03-28T01:45:39.357Z,102967.94
2019-03-28T01:46:46.787Z,102966.59
2019-03-28T01:47:54.696Z,102967.51
2019-03-28T01:49:03.714Z,102971.38
2019-03-28T01:50:11.469Z,102968.70
2019-03-28T01:51:18.941Z,102971.66
2019-03-28T01:52:26.900Z,102975.11
2019-03-28T01:53:35.097Z,102969.56
2019-03-28T01:54:42.557Z,102970.75
2019-03-28T01:55:50.441Z,102971.27
2019-03-28T01:57:10.400Z,102973.82
2019-03-28T01:58:07.557Z,102972.03
2019-03-28T01:59:15.372Z,102972.37
2019-03-28T02:00:23.336Z,102972.31
2019-03-28T02:01:30.878Z,102977.12
2019-03-28T02:02:38.795Z,102977.60
2019-03-28T02:03:46.550Z,102978.05
2019-03-28T02:04:54.751Z,102974.62
2019-03-28T02:06:02.418Z,102983.94
2019-03-28T02:07:10.285Z,102980.19
2019-03-28T02:08:18.136Z,102977.20
2019-03-28T02:09:26.056Z,102975.07
2019-03-28T02:10:33.595Z,102979.16
2019-03-28T02:11:41.087Z,102978.25
2019-03-28T02:12:48.607Z,102979.98
2019-03-28T02:13:56.192Z,102979.13
2019-03-28T02:15:04.505Z,102979.13
2019-03-28T02:16:12.398Z,102973.59
2019-03-28T02:17:20.513Z,102981.33
2019-03-28T02:18:28.055Z,102978.25
2019-03-28T02:19:35.597Z,102976.15
2019-03-28T02:20:43.136Z,102977.89
2019-03-28T02:21:50.686Z,102975.72
2019-03-28T02:22:58.152Z,102978.28
2019-03-28T02:24:06.175Z,102983.03
2019-03-28T02:25:13.720Z,102979.55
2019-03-28T02:26:21.250Z,102984.30
2019-03-28T02:27:29.133Z,102976.23
2019-03-28T02:28:37.170Z,102979.16
2019-03-28T02:29:44.876Z,102979.16
2019-03-28T02:30:52.361Z,102979.98
2019-03-28T02:32:00.238Z,102984.19
2019-03-28T02:33:07.846Z,102980.66
2019-03-28T02:34:15.663Z,102980.23
2019-03-28T02:35:23.217Z,102985.31
2019-03-28T02:36:31.081Z,102981.02
2019-03-28T02:37:38.640Z,102977.12
2019-03-28T02:38:46.417Z,102981.48
2019-03-28T02:39:53.999Z,102980.59
2019-03-28T02:41:01.540Z,102979.55
2019-03-28T02:42:09.040Z,102976.18
2019-03-28T02:43:16.966Z,102979.00
2019-03-28T02:44:25.294Z,102979.46
2019-03-28T02:45:33.138Z,102981.23
2019-03-28T02:46:40.776Z,102983.91
2019-03-28T02:47:49.030Z,102979.62
2019-03-28T02:48:56.576Z,102980.38
2019-03-28T02:50:04.075Z,102982.37
2019-03-28T02:51:11.551Z,102984.55
2019-03-28T02:52:19.438Z,102980.44
2019-03-28T02:53:27.746Z,102980.96
2019-03-28T02:54:35.232Z,102983.58
2019-03-28T02:55:43.105Z,102979.28
2019-03-28T02:56:50.641Z,102983.13
2019-03-28T02:57:58.516Z,102979.41
2019-03-28T02:59:06.677Z,102981.57
2019-03-28T03:00:15.210Z,102980.30
2019-03-28T03:01:22.980Z,102975.17
2019-03-28T03:02:30.642Z,102972.98
2019-03-28T03:03:38.454Z,102984.40
2019-03-28T03:04:46.073Z,102969.84
2019-03-28T03:05:54.000Z,102968.20
2019-03-28T03:07:01.927Z,102975.81
2019-03-28T03:08:09.608Z,102971.49
2019-03-28T03:09:17.155Z,102977.36
2019-03-28T03:10:25.084Z,102979.03
2019-03-28T03:11:32.631Z,102974.68
2019-03-28T03:12:40.431Z,102980.58
2019-03-28T03:13:48.042Z,102978.09
2019-03-28T03:14:55.506Z,102979.06
2019-03-28T03:16:03.658Z,102982.14
2019-03-28T03:17:11.117Z,102974.11
2019-03-28T03:18:30.031Z,102978.44
2019-03-28T03:19:37.848Z,102975.12
2019-03-28T03:20:45.550Z,102979.37
2019-03-28T03:21:53.037Z,102978.55
2019-03-28T03:23:00.959Z,102976.45
2019-03-28T03:24:08.459Z,102979.44
2019-03-28T03:25:16.474Z,102975.69
2019-03-28T03:26:24.365Z,102985.50
2019-03-28T03:27:32.818Z,102985.95
2019-03-28T03:28:40.384Z,102989.34
2019-03-28T03:29:48.208Z,102987.66
2019-03-28T03:30:55.780Z,102987.62
2019-03-28T03:32:03.736Z,102987.57
2019-03-28T03:33:11.230Z,102984.12
2019-03-28T03:34:19.151Z,102988.05
2019-03-28T03:35:27.099Z,102991.41
2019-03-28T03:36:34.625Z,102990.16
2019-03-28T03:37:42.552Z,102994.36
2019-03-28T03:38:50.116Z,102993.44
2019-03-28T03:39:57.638Z,102989.91
2019-03-28T03:41:05.526Z,102990.97
2019-03-28T03:42:13.345Z,102993.33
2019-03-28T03:43:20.904Z,102993.76
2019-03-28T03:44:28.839Z,102992.84
2019-03-28T03:45:36.387Z,102986.02
2019-03-28T03:46:44.525Z,102989.42
2019-03-28T03:47:52.136Z,102989.46
2019-03-28T03:48:59.635Z,102989.98
2019-03-28T03:50:08.693Z,102993.00
2019-03-28T03:51:16.829Z,102994.77
2019-03-28T03:52:24.685Z,102996.11
2019-03-28T03:53:32.829Z,102995.06
2019-03-28T03:54:41.088Z,102996.28
2019-03-28T03:55:48.934Z,102993.76
2019-03-28T03:56:56.769Z,103002.67
2019-03-28T03:58:15.208Z,103001.33
2019-03-28T03:59:13.830Z,103003.13
2019-03-28T04:00:31.964Z,103007.48
2019-03-28T04:01:39.836Z,103003.23
2019-03-28T04:02:48.291Z,103004.58
2019-03-28T04:03:56.194Z,103000.73
2019-03-28T04:05:03.674Z,102999.45
2019-03-28T04:06:11.369Z,103004.18
2019-03-28T04:07:18.845Z,103004.08
2019-03-28T04:08:27.127Z,103001.92
2019-03-28T04:09:35.125Z,103007.00
2019-03-28T04:10:42.952Z,103003.16
2019-03-28T04:11:50.755Z,103007.48
2019-03-28T04:12:58.657Z,103009.59
2019-03-28T04:14:06.569Z,103001.03
2019-03-28T04:15:14.360Z,103000.05
2019-03-28T04:16:22.345Z,103003.42
2019-03-28T04:17:30.207Z,103006.50
2019-03-28T04:18:38.457Z,103002.93
2019-03-28T04:19:48.089Z,103007.58
2019-03-28T04:20:56.350Z,103006.77
2019-03-28T04:22:04.036Z,103006.30
2019-03-28T04:23:11.491Z,102999.06
2019-03-28T04:24:19.265Z,103000.80
2019-03-28T04:25:27.066Z,103003.45
2019-03-28T04:26:34.897Z,102998.70
2019-03-28T04:27:42.882Z,102998.70
2019-03-28T04:28:51.067Z,103007.58
2019-03-28T04:29:59.012Z,103006.66
2019-03-28T04:31:06.534Z,103009.57
2019-03-28T04:32:14.098Z,103009.11
2019-03-28T04:33:21.898Z,103008.75
2019-03-28T04:34:29.474Z,103010.49
2019-03-28T04:35:37.008Z,103008.75
2019-03-28T04:36:44.977Z,103010.00
2019-03-28T04:37:52.787Z,103004.39
2019-03-28T04:39:00.253Z,103014.97
2019-03-28T04:40:09.024Z,103013.37
2019-03-28T04:41:16.562Z,103008.69
2019-03-28T04:42:24.360Z,103009.89
2019-03-28T04:43:32.030Z,103006.59
2019-03-28T04:44:39.521Z,103007.83
2019-03-28T04:45:47.068Z,103011.70
2019-03-28T04:46:54.534Z,103012.94
2019-03-28T04:48:02.033Z,103002.36
2019-03-28T04:49:09.608Z,103003.28
2019-03-28T04:50:17.695Z,103001.61
2019-03-28T04:51:25.655Z,103004.92
2019-03-28T04:52:33.125Z,103004.03
2019-03-28T04:53:40.598Z,103007.27
2019-03-28T04:54:48.113Z,103007.20
2019-03-28T04:55:55.596Z,103009.72
2019-03-28T04:57:03.115Z,103010.20
2019-03-28T04:58:10.712Z,103003.36
2019-03-28T04:59:18.207Z,103005.10
2019-03-28T05:00:26.005Z,103001.77
2019-03-28T05:01:33.564Z,103001.27
2019-03-28T05:02:41.333Z,103004.75
2019-03-28T05:03:49.437Z,103009.47
2019-03-28T05:04:57.566Z,103005.67
2019-03-28T05:06:05.436Z,103009.00
2019-03-28T05:07:13.309Z,103011.42
2019-03-28T05:08:21.233Z,103012.94
2019-03-28T05:09:28.793Z,103016.73
2019-03-28T05:10:37.575Z,103008.30
2019-03-28T05:11:45.785Z,103013.52
2019-03-28T05:12:53.353Z,103013.19
2019-03-28T05:14:01.161Z,103015.32
2019-03-28T05:15:10.657Z,103016.59
2019-03-28T05:16:18.197Z,103015.32
2019-03-28T05:17:26.103Z,103018.73
2019-03-28T05:18:34.095Z,103020.08
2019-03-28T05:19:42.212Z,103024.34
2019-03-28T05:20:50.556Z,103026.78
2019-03-28T05:21:58.425Z,103020.33
2019-03-28T05:23:05.885Z,103027.56
2019-03-28T05:24:13.667Z,103027.06
2019-03-28T05:25:21.573Z,103025.36
2019-03-28T05:26:29.560Z,103029.27
2019-03-28T05:27:37.026Z,103027.17
2019-03-28T05:28:56.634Z,103027.06
2019-03-28T05:29:54.256Z,103025.78
2019-03-28T05:31:01.780Z,103032.14
2019-03-28T05:32:09.500Z,103027.53
2019-03-28T05:33:17.397Z,103027.60
2019-03-28T05:34:25.128Z,103032.81
2019-03-28T05:35:33.092Z,103032.89
2019-03-28T05:36:40.825Z,103034.23
2019-03-28T05:37:48.286Z,103038.50
2019-03-28T05:38:56.159Z,103036.90
2019-03-28T05:40:03.712Z,103044.17
2019-03-28T05:41:11.590Z,103039.00
2019-03-28T05:42:19.147Z,103039.42
2019-03-28T05:43:26.928Z,103042.02
2019-03-28T05:44:34.603Z,103041.13
2019-03-28T05:45:42.538Z,103042.16
2019-03-28T05:46:50.079Z,103038.67
2019-03-28T05:48:00.292Z,103044.63
2019-03-28T05:49:07.689Z,103046.30
2019-03-28T05:50:15.368Z,103047.66
2019-03-28T05:51:22.844Z,103049.00
2019-03-28T05:52:30.399Z,103055.96
2019-03-28T05:53:38.564Z,103046.23
2019-03-28T05:54:46.769Z,103054.83
2019-03-28T05:55:54.307Z,103057.06
2019-03-28T05:57:02.877Z,103053.33
2019-03-28T05:58:10.874Z,103060.25
2019-03-28T05:59:19.542Z,103061.56
2019-03-28T06:00:27.271Z,103058.62
2019-03-28T06:01:34.763Z,103063.73
2019-03-28T06:02:42.300Z,103065.94
2019-03-28T06:03:49.776Z,103067.57
2019-03-28T06:04:57.494Z,103077.90
2019-03-28T06:06:04.952Z,103075.88
2019-03-28T06:07:13.183Z,103078.47
2019-03-28T06:08:21.020Z,103079.81
2019-03-28T06:09:28.505Z,103079.06
2019-03-28T06:10:36.482Z,103086.70
2019-03-28T06:11:44.241Z,103084.00
2019-03-28T06:12:51.716Z,103083.08
2019-03-28T06:13:59.222Z,103084.75
2019-03-28T06:15:08.660Z,103083.83
2019-03-28T06:16:16.566Z,103084.58
2019-03-28T06:17:24.071Z,103081.13
2019-03-28T06:18:32.042Z,103081.95
2019-03-28T06:19:39.922Z,103083.58
2019-03-28T06:20:47.523Z,103082.02
2019-03-28T06:21:55.284Z,103086.81
2019-03-28T06:23:02.830Z,103083.94
2019-03-28T06:24:10.527Z,103082.41
2019-03-28T06:25:18.036Z,103080.34
2019-03-28T06:26:25.539Z,103086.95
2019-03-28T06:27:33.767Z,103083.16
2019-03-28T06:28:41.304Z,103086.89
2019-03-28T06:29:48.872Z,103088.59
2019-03-28T06:30:56.831Z,103089.12
2019-03-28T06:32:04.842Z,103088.37
2019-03-28T06:33:12.744Z,103079.48
2019-03-28T06:34:20.241Z,103085.95
2019-03-28T06:35:28.102Z,103076.99
2019-03-28T06:36:35.559Z,103078.83
2019-03-28T06:37:43.021Z,103081.36
2019-03-28T06:38:50.523Z,103083.13
2019-03-28T06:39:58.076Z,103082.41
2019-03-28T06:41:06.006Z,103083.87
2019-03-28T06:42:13.537Z,103084.77
2019-03-28T06:43:21.852Z,103094.53
2019-03-28T06:44:29.740Z,103097.59
2019-03-28T06:45:37.248Z,103098.11
2019-03-28T06:46:45.196Z,103096.09
2019-03-28T06:47:52.786Z,103097.59
2019-03-28T06:49:00.522Z,103095.91
2019-03-28T06:50:09.693Z,103098.11
2019-03-28T06:51:17.243Z,103099.63
2019-03-28T06:52:25.032Z,103104.53
2019-03-28T06:53:32.510Z,103101.33
2019-03-28T06:54:40.246Z,103104.11
2019-03-28T06:55:47.684Z,103101.55
2019-03-28T06:57:14.215Z,103101.60
2019-03-28T06:58:21.717Z,103101.90
2019-03-28T06:59:37.128Z,103099.88
2019-03-28T07:00:38.400Z,103104.14
2019-03-28T07:01:45.853Z,103097.34
2019-03-28T07:02:53.373Z,103099.50
2019-03-28T07:04:01.177Z,103093.20
2019-03-28T07:05:09.150Z,103095.42
2019-03-28T07:06:16.670Z,103093.73
2019-03-28T07:07:24.496Z,103095.09
2019-03-28T07:08:32.057Z,103094.77
2019-03-28T07:09:39.608Z,103096.36
2019-03-28T07:10:47.197Z,103095.45
2019-03-28T07:11:55.374Z,103094.14
2019-03-28T07:13:02.865Z,103090.97
2019-03-28T07:14:10.656Z,103091.66
2019-03-28T07:15:18.559Z,103080.98
2019-03-28T07:16:26.612Z,103083.44
2019-03-28T07:17:34.452Z,103085.91
2019-03-28T07:18:42.282Z,103081.41
2019-03-28T07:19:50.204Z,103081.49
2019-03-28T07:20:58.196Z,103086.21
2019-03-28T07:22:05.804Z,103082.69
2019-03-28T07:23:13.710Z,103089.11
2019-03-28T07:24:21.192Z,103083.56
2019-03-28T07:25:28.692Z,103089.30
2019-03-28T07:26:36.206Z,103087.20
2019-03-28T07:27:43.751Z,103087.80
2019-03-28T07:28:54.164Z,103092.19
2019-03-28T07:30:00.464Z,103092.25
2019-03-28T07:31:08.283Z,103088.59
2019-03-28T07:32:16.031Z,103093.28
2019-03-28T07:33:23.466Z,103094.87
2019-03-28T07:34:30.948Z,103101.33
2019-03-28T07:35:38.882Z,103100.93
2019-03-28T07:36:47.606Z,103092.77
2019-03-28T07:37:55.073Z,103097.89
2019-03-28T07:39:03.113Z,103097.92
2019-03-28T07:40:11.207Z,103103.03
2019-03-28T07:41:18.679Z,103098.80
2019-03-28T07:42:26.180Z,103102.30
2019-03-28T07:43:34.155Z,103105.71
2019-03-28T07:44:42.087Z,103104.69
2019-03-28T07:45:49.634Z,103099.02
2019-03-28T07:46:57.253Z,103097.82
2019-03-28T07:48:05.089Z,103091.09
2019-03-28T07:49:12.550Z,103095.04
2019-03-28T07:50:20.147Z,103099.50
2019-03-28T07:51:27.874Z,103101.72
2019-03-28T07:52:35.669Z,103106.45
2019-03-28T07:53:43.163Z,103111.70
2019-03-28T07:54:51.086Z,103111.34
2019-03-28T07:55:59.285Z,103107.59
2019-03-28T07:57:07.349Z,103105.55
2019-03-28T07:58:15.306Z,103107.03
2019-03-28T07:59:23.076Z,103098.41
2019-03-28T08:00:30.595Z,103100.12
2019-03-28T08:01:38.101Z,103105.38
2019-03-28T08:02:45.995Z,103102.56
2019-03-28T08:03:53.934Z,103112.91
2019-03-28T08:05:02.256Z,103108.67
2019-03-28T08:06:12.614Z,103111.37
2019-03-28T08:07:19.112Z,103112.42
2019-03-28T08:08:38.281Z,103113.88
2019-03-28T08:09:37.156Z,103117.83
2019-03-28T08:10:45.358Z,103118.00
2019-03-28T08:11:52.834Z,103112.97
2019-03-28T08:13:00.364Z,103110.54
2019-03-28T08:14:08.486Z,103108.57
2019-03-28T08:15:16.968Z,103103.98
2019-03-28T08:16:24.786Z,103100.28
2019-03-28T08:17:33.207Z,103104.72
2019-03-28T08:18:40.805Z,103101.88
2019-03-28T08:19:49.045Z,103107.81
2019-03-28T08:20:56.966Z,103108.13
2019-03-28T08:22:04.953Z,103109.51
2019-03-28T08:23:12.849Z,103115.66
2019-03-28T08:24:20.918Z,103120.00
2019-03-28T08:25:28.758Z,103119.72
2019-03-28T08:26:36.300Z,103117.75
2019-03-28T08:27:44.521Z,103120.82
2019-03-28T08:28:51.988Z,103117.02
2019-03-28T08:29:59.622Z,103111.45
2019-03-28T08:31:07.614Z,103114.41
2019-03-28T08:32:18.141Z,103120.36
2019-03-28T08:33:26.484Z,103115.26
2019-03-28T08:34:34.231Z,103122.52
2019-03-28T08:35:41.935Z,103125.09
2019-03-28T08:36:51.688Z,103123.79
2019-03-28T08:37:59.367Z,103129.80
2019-03-28T08:39:08.211Z,103130.69
2019-03-28T08:40:35.416Z,103118.66
2019-03-28T08:41:43.278Z,103120.36
2019-03-28T08:42:50.870Z,103125.58
2019-03-28T08:43:58.706Z,103122.14
2019-03-28T08:45:07.354Z,103126.42
2019-03-28T08:46:15.370Z,103121.69
2019-03-28T08:47:22.922Z,103134.13
2019-03-28T08:48:31.032Z,103132.44
2019-03-28T08:49:38.983Z,103134.55
2019-03-28T08:50:46.727Z,103137.94
2019-03-28T08:51:55.385Z,103138.73
2019-03-28T08:53:02.868Z,103140.47
2019-03-28T08:54:10.362Z,103141.80
2019-03-28T08:55:18.610Z,103139.23
2019-03-28T08:56:27.128Z,103140.93
2019-03-28T08:57:35.064Z,103148.65
2019-03-28T08:58:42.543Z,103148.65
2019-03-28T08:59:50.714Z,103147.84
2019-03-28T09:00:58.674Z,103147.38
2019-03-28T09:02:06.249Z,103146.91
2019-03-28T09:03:13.748Z,103149.96
2019-03-28T09:04:21.258Z,103144.80
2019-03-28T09:05:29.313Z,103149.11
2019-03-28T09:06:37.057Z,103146.10
2019-03-28T09:07:44.650Z,103146.10
2019-03-28T09:08:52.167Z,103148.19
2019-03-28T09:09:59.662Z,103149.46
2019-03-28T09:11:07.326Z,103152.95
2019-03-28T09:12:14.964Z,103156.19
2019-03-28T09:13:22.891Z,103161.34
2019-03-28T09:14:32.045Z,103156.73
2019-03-28T09:15:43.933Z,103164.06
2019-03-28T09:16:48.983Z,103168.85
2019-03-28T09:17:56.628Z,103167.08
2019-03-28T09:19:04.132Z,103171.86
2019-03-28T09:20:12.154Z,103168.87
2019-03-28T09:21:19.633Z,103168.02
2019-03-28T09:22:27.291Z,103158.52
2019-03-28T09:23:34.842Z,103159.78
2019-03-28T09:24:42.374Z,103158.95
2019-03-28T09:25:50.362Z,103166.31
2019-03-28T09:26:57.847Z,103167.17
2019-03-28T09:28:05.676Z,103168.92
2019-03-28T09:29:13.487Z,103168.55
2019-03-28T09:30:47.971Z,103170.26
2019-03-28T09:31:50.001Z,103164.66
2019-03-28T09:32:57.961Z,103166.36
2019-03-28T09:34:05.870Z,103167.62
2019-03-28T09:35:18.992Z,103164.63
2019-03-28T09:36:26.517Z,103174.91
2019-03-28T09:37:34.382Z,103170.16
2019-03-28T09:38:41.989Z,103170.53
2019-03-28T09:39:49.894Z,103171.40
2019-03-28T09:40:57.947Z,103174.88
2019-03-28T09:42:05.480Z,103170.61
2019-03-28T09:43:13.168Z,103176.19
2019-03-28T09:44:21.414Z,103172.66
2019-03-28T09:45:30.188Z,103175.23
2019-03-28T09:46:37.831Z,103178.72
2019-03-28T09:47:45.370Z,103177.48
2019-03-28T09:48:53.166Z,103171.45
2019-03-28T09:50:01.029Z,103168.02
2019-03-28T09:51:08.536Z,103166.65
2019-03-28T09:52:16.088Z,103162.37
2019-03-28T09:53:23.608Z,103164.10
2019-03-28T09:54:31.171Z,103166.73
2019-03-28T09:55:38.667Z,103169.71
2019-03-28T09:56:46.942Z,103167.80
2019-03-28T09:57:54.537Z,103172.18
2019-03-28T09:59:02.767Z,103169.30
2019-03-28T10:00:13.158Z,103167.23
2019-03-28T10:01:20.794Z,103173.23
2019-03-28T10:02:28.638Z,103166.40
2019-03-28T10:03:36.195Z,103168.13
2019-03-28T10:04:43.997Z,103167.72
2019-03-28T10:05:52.276Z,103174.18
2019-03-28T10:07:00.209Z,103168.17
2019-03-28T10:08:08.354Z,103174.20
2019-03-28T10:09:15.808Z,103163.47
2019-03-28T10:10:23.389Z,103165.61
2019-03-28T10:11:31.324Z,103166.45
2019-03-28T10:12:39.152Z,103164.34
2019-03-28T10:13:47.028Z,103166.51
2019-03-28T10:14:54.933Z,103166.51
2019-03-28T10:16:02.450Z,103167.80
2019-03-28T10:17:10.009Z,103170.31
2019-03-28T10:18:17.562Z,103175.04
2019-03-28T10:19:25.051Z,103174.16
2019-03-28T10:20:32.847Z,103174.66
2019-03-28T10:21:40.335Z,103170.38
2019-03-28T10:22:48.185Z,103173.80
2019-03-28T10:23:56.481Z,103174.25
2019-03-28T10:25:04.005Z,103173.39
2019-03-28T10:26:11.518Z,103170.81
2019-03-28T10:27:19.465Z,103174.68
2019-03-28T10:28:27.029Z,103169.08
2019-03-28T10:29:34.900Z,103166.53
2019-03-28T10:30:46.971Z,103171.23
2019-03-28T10:31:54.443Z,103169.93
2019-03-28T10:33:02.027Z,103173.37
2019-03-28T10:34:09.569Z,103175.10
2019-03-28T10:35:30.697Z,103180.25
2019-03-28T10:36:38.801Z,103173.41
2019-03-28T10:37:46.364Z,103172.55
2019-03-28T10:38:54.378Z,103178.99
2019-03-28T10:40:02.607Z,103177.67
2019-03-28T10:41:10.498Z,103169.08
2019-03-28T10:42:18.318Z,103164.32
2019-03-28T10:43:25.808Z,103166.09
2019-03-28T10:44:33.366Z,103163.92
2019-03-28T10:45:41.180Z,103162.69
2019-03-28T10:46:48.864Z,103159.25
2019-03-28T10:47:56.491Z,103162.68
2019-03-28T10:49:04.729Z,103167.41
2019-03-28T10:50:12.228Z,103166.99
2019-03-28T10:51:20.251Z,103164.84
2019-03-28T10:52:28.314Z,103163.97
2019-03-28T10:53:35.945Z,103162.69
2019-03-28T10:54:43.441Z,103163.50
2019-03-28T10:55:51.243Z,103161.76
2019-03-28T10:57:12.497Z,103166.52
2019-03-28T10:58:18.263Z,103164.34
2019-03-28T10:59:23.447Z,103160.53
2019-03-28T11:00:27.130Z,103165.25
2019-03-28T11:01:47.945Z,103165.66
2019-03-28T11:02:44.278Z,103169.48
2019-03-28T11:03:52.537Z,103169.54
2019-03-28T11:05:00.047Z,103163.52
2019-03-28T11:06:07.699Z,103168.64
2019-03-28T11:07:15.281Z,103159.58
2019-03-28T11:08:22.859Z,103160.84
2019-03-28T11:09:30.434Z,103157.78
2019-03-28T11:10:38.657Z,103162.50
2019-03-28T11:11:46.720Z,103167.22
2019-03-28T11:12:54.684Z,103164.63
2019-03-28T11:14:02.577Z,103166.77
2019-03-28T11:15:11.213Z,103165.52
2019-03-28T11:16:19.106Z,103162.05
2019-03-28T11:17:26.698Z,103164.23
2019-03-28T11:18:34.612Z,103166.00
2019-03-28T11:19:42.152Z,103169.02
2019-03-28T11:20:50.207Z,103166.00
2019-03-28T11:21:58.044Z,103167.75
2019-03-28T11:23:05.742Z,103166.09
2019-03-28T11:24:13.287Z,103169.11
2019-03-28T11:25:20.849Z,103167.78
2019-03-28T11:26:28.611Z,103168.17
2019-03-28T11:27:36.213Z,103168.58
2019-03-28T11:28:43.713Z,103171.12
2019-03-28T11:29:51.340Z,103168.20
2019-03-28T11:30:59.422Z,103169.93
2019-03-28T11:32:07.695Z,103172.48
2019-03-28T11:33:15.195Z,103178.02
2019-03-28T11:34:22.795Z,103177.98
2019-03-28T11:35:30.609Z,103177.95
2019-03-28T11:36:38.083Z,103176.33
2019-03-28T11:37:45.637Z,103174.19
2019-03-28T11:38:54.870Z,103178.02
2019-03-28T11:40:02.555Z,103176.70
2019-03-28T11:41:10.677Z,103182.70
2019-03-28T11:42:19.023Z,103173.62
2019-03-28T11:43:26.678Z,103180.88
2019-03-28T11:44:34.252Z,103178.79
2019-03-28T11:45:42.248Z,103176.33
2019-03-28T11:46:49.745Z,103173.74
2019-03-28T11:47:57.844Z,103178.02
2019-03-28T11:49:05.819Z,103178.87
2019-03-28T11:50:16.966Z,103172.89
2019-03-28T11:51:23.412Z,103171.19
2019-03-28T11:52:30.895Z,103172.94
2019-03-28T11:53:38.696Z,103173.84
2019-03-28T11:54:46.767Z,103175.57
2019-03-28T11:55:54.415Z,103173.86
2019-03-28T11:57:02.662Z,103172.13
2019-03-28T11:58:11.478Z,103168.27
2019-03-28T11:59:19.945Z,103163.52
2019-03-28T12:00:27.469Z,103171.28
2019-03-28T12:01:35.720Z,103161.83
2019-03-28T12:02:44.029Z,103169.14
2019-03-28T12:03:51.595Z,103166.98
2019-03-28T12:04:59.395Z,103170.86
2019-03-28T12:06:07.018Z,103176.84
2019-03-28T12:07:14.535Z,103173.00
2019-03-28T12:08:22.008Z,103172.55
2019-03-28T12:09:29.488Z,103171.27
2019-03-28T12:10:37.037Z,103167.38
2019-03-28T12:11:44.542Z,103170.82
2019-03-28T12:12:52.357Z,103169.53
2019-03-28T12:13:59.900Z,103164.34
2019-03-28T12:15:09.492Z,103163.98
2019-03-28T12:16:17.296Z,103157.06
2019-03-28T12:17:24.948Z,103164.38
2019-03-28T12:18:32.644Z,103157.53
2019-03-28T12:19:40.426Z,103160.95
2019-03-28T12:20:48.260Z,103159.66
2019-03-28T12:21:55.799Z,103154.53
2019-03-28T12:23:03.416Z,103154.09
2019-03-28T12:24:11.603Z,103151.52
2019-03-28T12:25:19.647Z,103152.78
2019-03-28T12:26:27.246Z,103157.54
2019-03-28T12:27:34.787Z,103151.92
2019-03-28T12:28:42.663Z,103154.03
2019-03-28T12:29:50.329Z,103156.61
2019-03-28T12:30:58.223Z,103157.07
2019-03-28T12:32:13.893Z,103156.62
2019-03-28T12:33:14.973Z,103150.62
2019-03-28T12:34:22.506Z,103158.34
2019-03-28T12:35:29.992Z,103148.89
2019-03-28T12:36:37.795Z,103152.33
2019-03-28T12:37:45.333Z,103149.77
2019-03-28T12:38:52.962Z,103151.89
2019-03-28T12:40:00.708Z,103148.89
2019-03-28T12:41:08.606Z,103149.77
2019-03-28T12:42:16.483Z,103152.80
2019-03-28T12:43:23.975Z,103141.21
2019-03-28T12:44:31.489Z,103145.06
2019-03-28T12:45:39.278Z,103145.08
2019-03-28T12:46:47.132Z,103146.37
2019-03-28T12:47:55.075Z,103143.36
2019-03-28T12:49:03.091Z,103144.63
2019-03-28T12:50:13.119Z,103142.05
2019-03-28T12:51:22.301Z,103145.48
2019-03-28T12:52:30.356Z,103142.06
2019-03-28T12:53:38.312Z,103142.47
2019-03-28T12:54:46.182Z,103147.63
2019-03-28T12:55:54.094Z,103151.46